sensor_id;sensor_type;location;lat;lon;timestamp;P1;durP1;ratioP1;P2;durP2;ratioP2
4724;SDS011;2376;53.544;10.226;2023-08-31T00:02:00;11.47;;;10.57;;
4724;SDS011;2376;53.544;10.226;2023-08-31T00:04:28;11.23;;;10.33;;
4724;SDS011;2376;53.544;10.226;2023-08-31T00:06:55;11.80;;;10.80;;
4724;SDS011;2376;53.544;10.226;2023-08-31T00:09:22;11.97;;;10.97;;
4724;SDS011;2376;53.544;10.226;2023-08-31T00:11:49;11.10;;;10.00;;
4724;SDS011;2376;53.544;10.226;2023-08-31T00:14:15;12.93;;;11.20;;
4724;SDS011;2376;53.544;10.226;2023-08-31T00:16:43;11.70;;;10.60;;
4724;SDS011;2376;53.544;10.226;2023-08-31T00:19:12;13.30;;;11.83;;
4724;SDS011;2376;53.544;10.226;2023-08-31T00:21:39;10.10;;;9.30;;
4724;SDS011;2376;53.544;10.226;2023-08-31T00:24:06;11.53;;;10.53;;
4724;SDS011;2376;53.544;10.226;2023-08-31T00:26:34;11.43;;;10.33;;
4724;SDS011;2376;53.544;10.226;2023-08-31T00:29:07;9.93;;;9.13;;
4724;SDS011;2376;53.544;10.226;2023-08-31T00:31:34;9.27;;;8.53;;
4724;SDS011;2376;53.544;10.226;2023-08-31T00:34:01;10.30;;;9.43;;
4724;SDS011;2376;53.544;10.226;2023-08-31T00:36:30;8.90;;;8.10;;
4724;SDS011;2376;53.544;10.226;2023-08-31T00:38:58;8.73;;;7.93;;
4724;SDS011;2376;53.544;10.226;2023-08-31T00:41:30;8.80;;;8.00;;
4724;SDS011;2376;53.544;10.226;2023-08-31T00:43:57;9.70;;;8.07;;
4724;SDS011;2376;53.544;10.226;2023-08-31T00:46:24;8.33;;;7.40;;
4724;SDS011;2376;53.544;10.226;2023-08-31T00:48:52;8.63;;;7.83;;
4724;SDS011;2376;53.544;10.226;2023-08-31T00:51:19;8.23;;;7.57;;
4724;SDS011;2376;53.544;10.226;2023-08-31T00:53:48;9.03;;;8.23;;
4724;SDS011;2376;53.544;10.226;2023-08-31T00:56:18;8.93;;;8.07;;
4724;SDS011;2376;53.544;10.226;2023-08-31T00:58:45;7.93;;;7.23;;
4724;SDS011;2376;53.544;10.226;2023-08-31T01:01:14;7.30;;;6.27;;
4724;SDS011;2376;53.544;10.226;2023-08-31T01:03:50;7.50;;;6.80;;
4724;SDS011;2376;53.544;10.226;2023-08-31T01:06:27;8.17;;;7.57;;
4724;SDS011;2376;53.544;10.226;2023-08-31T01:09:14;9.70;;;8.80;;
4724;SDS011;2376;53.544;10.226;2023-08-31T01:11:54;8.77;;;7.77;;
4724;SDS011;2376;53.544;10.226;2023-08-31T01:14:25;8.93;;;8.23;;
4724;SDS011;2376;53.544;10.226;2023-08-31T01:16:58;9.10;;;8.17;;
4724;SDS011;2376;53.544;10.226;2023-08-31T01:19:30;8.27;;;7.53;;
4724;SDS011;2376;53.544;10.226;2023-08-31T01:22:07;12.40;;;9.27;;
4724;SDS011;2376;53.544;10.226;2023-08-31T01:24:39;9.97;;;9.00;;
4724;SDS011;2376;53.544;10.226;2023-08-31T01:27:06;8.90;;;8.10;;
4724;SDS011;2376;53.544;10.226;2023-08-31T01:29:34;8.77;;;7.73;;
4724;SDS011;2376;53.544;10.226;2023-08-31T01:32:04;9.10;;;8.30;;
4724;SDS011;2376;53.544;10.226;2023-08-31T01:34:32;8.37;;;7.57;;
4724;SDS011;2376;53.544;10.226;2023-08-31T01:36:59;9.20;;;8.40;;
4724;SDS011;2376;53.544;10.226;2023-08-31T01:39:31;12.07;;;8.27;;
4724;SDS011;2376;53.544;10.226;2023-08-31T01:42:05;10.23;;;9.10;;
4724;SDS011;2376;53.544;10.226;2023-08-31T01:44:33;11.60;;;8.70;;
4724;SDS011;2376;53.544;10.226;2023-08-31T01:47:04;9.03;;;8.23;;
4724;SDS011;2376;53.544;10.226;2023-08-31T01:49:35;10.07;;;9.07;;
4724;SDS011;2376;53.544;10.226;2023-08-31T01:52:03;8.23;;;7.53;;
4724;SDS011;2376;53.544;10.226;2023-08-31T01:54:30;8.27;;;7.53;;
4724;SDS011;2376;53.544;10.226;2023-08-31T01:56:57;9.67;;;8.50;;
4724;SDS011;2376;53.544;10.226;2023-08-31T01:59:25;9.13;;;8.27;;
4724;SDS011;2376;53.544;10.226;2023-08-31T02:01:52;8.63;;;7.83;;
4724;SDS011;2376;53.544;10.226;2023-08-31T02:04:19;10.07;;;8.27;;
4724;SDS011;2376;53.544;10.226;2023-08-31T02:06:46;8.10;;;7.40;;
4724;SDS011;2376;53.544;10.226;2023-08-31T02:09:13;7.67;;;7.03;;
4724;SDS011;2376;53.544;10.226;2023-08-31T02:11:40;8.60;;;7.27;;
4724;SDS011;2376;53.544;10.226;2023-08-31T02:14:07;8.03;;;7.30;;
4724;SDS011;2376;53.544;10.226;2023-08-31T02:16:35;7.80;;;7.00;;
4724;SDS011;2376;53.544;10.226;2023-08-31T02:19:01;7.60;;;6.90;;
4724;SDS011;2376;53.544;10.226;2023-08-31T02:21:28;7.90;;;6.90;;
4724;SDS011;2376;53.544;10.226;2023-08-31T02:23:55;8.47;;;7.77;;
4724;SDS011;2376;53.544;10.226;2023-08-31T02:26:21;6.80;;;6.30;;
4724;SDS011;2376;53.544;10.226;2023-08-31T02:28:48;7.60;;;6.90;;
4724;SDS011;2376;53.544;10.226;2023-08-31T02:31:16;7.43;;;6.83;;
4724;SDS011;2376;53.544;10.226;2023-08-31T02:33:46;8.03;;;7.23;;
4724;SDS011;2376;53.544;10.226;2023-08-31T02:36:13;9.40;;;6.27;;
4724;SDS011;2376;53.544;10.226;2023-08-31T02:38:39;6.30;;;5.67;;
4724;SDS011;2376;53.544;10.226;2023-08-31T02:41:06;9.07;;;6.60;;
4724;SDS011;2376;53.544;10.226;2023-08-31T02:43:32;8.67;;;6.77;;
4724;SDS011;2376;53.544;10.226;2023-08-31T02:45:59;6.27;;;5.50;;
4724;SDS011;2376;53.544;10.226;2023-08-31T02:48:26;7.57;;;5.70;;
4724;SDS011;2376;53.544;10.226;2023-08-31T02:50:56;6.60;;;6.10;;
4724;SDS011;2376;53.544;10.226;2023-08-31T02:53:23;7.37;;;6.60;;
4724;SDS011;2376;53.544;10.226;2023-08-31T02:55:49;6.60;;;6.10;;
4724;SDS011;2376;53.544;10.226;2023-08-31T02:58:16;6.73;;;6.13;;
4724;SDS011;2376;53.544;10.226;2023-08-31T03:00:44;6.50;;;5.77;;
4724;SDS011;2376;53.544;10.226;2023-08-31T03:03:12;7.77;;;5.80;;
4724;SDS011;2376;53.544;10.226;2023-08-31T03:05:39;6.50;;;5.90;;
4724;SDS011;2376;53.544;10.226;2023-08-31T03:08:07;6.70;;;6.10;;
4724;SDS011;2376;53.544;10.226;2023-08-31T03:10:34;7.50;;;6.77;;
4724;SDS011;2376;53.544;10.226;2023-08-31T03:13:01;6.33;;;5.70;;
4724;SDS011;2376;53.544;10.226;2023-08-31T03:15:28;9.13;;;6.50;;
4724;SDS011;2376;53.544;10.226;2023-08-31T03:17:55;7.23;;;6.63;;
4724;SDS011;2376;53.544;10.226;2023-08-31T03:20:22;7.40;;;6.80;;
4724;SDS011;2376;53.544;10.226;2023-08-31T03:22:49;11.13;;;7.20;;
4724;SDS011;2376;53.544;10.226;2023-08-31T03:25:17;7.17;;;6.60;;
4724;SDS011;2376;53.544;10.226;2023-08-31T03:27:43;7.97;;;7.23;;
4724;SDS011;2376;53.544;10.226;2023-08-31T03:30:10;8.43;;;6.97;;
4724;SDS011;2376;53.544;10.226;2023-08-31T03:32:37;10.53;;;7.80;;
4724;SDS011;2376;53.544;10.226;2023-08-31T03:35:04;6.90;;;6.30;;
4724;SDS011;2376;53.544;10.226;2023-08-31T03:37:32;7.20;;;6.50;;
4724;SDS011;2376;53.544;10.226;2023-08-31T03:39:59;8.23;;;7.17;;
4724;SDS011;2376;53.544;10.226;2023-08-31T03:42:27;7.57;;;6.73;;
4724;SDS011;2376;53.544;10.226;2023-08-31T03:44:53;8.43;;;7.10;;
4724;SDS011;2376;53.544;10.226;2023-08-31T03:47:20;9.07;;;7.30;;
4724;SDS011;2376;53.544;10.226;2023-08-31T03:49:47;7.90;;;7.20;;
4724;SDS011;2376;53.544;10.226;2023-08-31T03:52:13;9.60;;;7.10;;
4724;SDS011;2376;53.544;10.226;2023-08-31T03:54:40;15.37;;;6.40;;
4724;SDS011;2376;53.544;10.226;2023-08-31T03:57:07;8.50;;;7.67;;
4724;SDS011;2376;53.544;10.226;2023-08-31T03:59:35;7.27;;;6.53;;
4724;SDS011;2376;53.544;10.226;2023-08-31T04:02:01;6.50;;;5.93;;
4724;SDS011;2376;53.544;10.226;2023-08-31T04:04:29;7.03;;;6.47;;
4724;SDS011;2376;53.544;10.226;2023-08-31T04:06:55;6.80;;;6.20;;
4724;SDS011;2376;53.544;10.226;2023-08-31T04:09:22;7.70;;;6.83;;
4724;SDS011;2376;53.544;10.226;2023-08-31T04:11:48;8.67;;;7.00;;
4724;SDS011;2376;53.544;10.226;2023-08-31T04:14:15;7.00;;;6.30;;
4724;SDS011;2376;53.544;10.226;2023-08-31T04:16:44;10.63;;;7.20;;
4724;SDS011;2376;53.544;10.226;2023-08-31T04:19:14;7.83;;;7.13;;
4724;SDS011;2376;53.544;10.226;2023-08-31T04:21:41;7.23;;;6.50;;
4724;SDS011;2376;53.544;10.226;2023-08-31T04:24:08;6.43;;;5.83;;
4724;SDS011;2376;53.544;10.226;2023-08-31T04:26:35;7.17;;;6.57;;
4724;SDS011;2376;53.544;10.226;2023-08-31T04:29:02;11.93;;;6.70;;
4724;SDS011;2376;53.544;10.226;2023-08-31T04:31:30;8.77;;;7.07;;
4724;SDS011;2376;53.544;10.226;2023-08-31T04:33:58;21.63;;;7.53;;
4724;SDS011;2376;53.544;10.226;2023-08-31T04:36:25;10.70;;;7.13;;
4724;SDS011;2376;53.544;10.226;2023-08-31T04:38:52;7.03;;;6.47;;
4724;SDS011;2376;53.544;10.226;2023-08-31T04:41:18;7.87;;;7.00;;
4724;SDS011;2376;53.544;10.226;2023-08-31T04:43:46;7.63;;;6.60;;
4724;SDS011;2376;53.544;10.226;2023-08-31T04:46:13;6.50;;;5.93;;
4724;SDS011;2376;53.544;10.226;2023-08-31T04:48:40;8.37;;;5.73;;
4724;SDS011;2376;53.544;10.226;2023-08-31T04:51:09;8.30;;;6.10;;
4724;SDS011;2376;53.544;10.226;2023-08-31T04:53:52;9.30;;;6.03;;
4724;SDS011;2376;53.544;10.226;2023-08-31T04:56:19;7.10;;;5.17;;
4724;SDS011;2376;53.544;10.226;2023-08-31T04:58:45;5.87;;;5.47;;
4724;SDS011;2376;53.544;10.226;2023-08-31T05:01:12;8.30;;;6.13;;
4724;SDS011;2376;53.544;10.226;2023-08-31T05:03:39;7.07;;;5.63;;
4724;SDS011;2376;53.544;10.226;2023-08-31T05:06:07;6.50;;;5.30;;
4724;SDS011;2376;53.544;10.226;2023-08-31T05:08:34;11.93;;;5.27;;
4724;SDS011;2376;53.544;10.226;2023-08-31T05:11:00;6.00;;;5.40;;
4724;SDS011;2376;53.544;10.226;2023-08-31T05:13:27;6.07;;;5.47;;
4724;SDS011;2376;53.544;10.226;2023-08-31T05:15:54;5.97;;;5.50;;
4724;SDS011;2376;53.544;10.226;2023-08-31T05:18:20;5.37;;;4.87;;
4724;SDS011;2376;53.544;10.226;2023-08-31T05:20:47;5.87;;;4.90;;
4724;SDS011;2376;53.544;10.226;2023-08-31T05:23:15;9.93;;;5.60;;
4724;SDS011;2376;53.544;10.226;2023-08-31T05:25:42;8.33;;;5.50;;
4724;SDS011;2376;53.544;10.226;2023-08-31T05:28:09;6.30;;;5.80;;
4724;SDS011;2376;53.544;10.226;2023-08-31T05:30:36;9.73;;;5.77;;
4724;SDS011;2376;53.544;10.226;2023-08-31T05:33:03;6.57;;;5.90;;
4724;SDS011;2376;53.544;10.226;2023-08-31T05:35:30;6.00;;;5.50;;
4724;SDS011;2376;53.544;10.226;2023-08-31T05:37:57;6.83;;;5.83;;
4724;SDS011;2376;53.544;10.226;2023-08-31T05:40:25;11.37;;;5.70;;
4724;SDS011;2376;53.544;10.226;2023-08-31T05:42:51;7.33;;;5.07;;
4724;SDS011;2376;53.544;10.226;2023-08-31T05:45:18;9.67;;;6.10;;
4724;SDS011;2376;53.544;10.226;2023-08-31T05:47:45;7.90;;;5.53;;
4724;SDS011;2376;53.544;10.226;2023-08-31T05:50:12;7.27;;;6.33;;
4724;SDS011;2376;53.544;10.226;2023-08-31T05:52:38;6.77;;;6.17;;
4724;SDS011;2376;53.544;10.226;2023-08-31T05:55:08;8.47;;;6.60;;
4724;SDS011;2376;53.544;10.226;2023-08-31T05:57:36;10.70;;;6.47;;
4724;SDS011;2376;53.544;10.226;2023-08-31T06:00:04;9.40;;;6.90;;
4724;SDS011;2376;53.544;10.226;2023-08-31T06:02:32;13.30;;;6.17;;
4724;SDS011;2376;53.544;10.226;2023-08-31T06:04:59;12.73;;;6.67;;
4724;SDS011;2376;53.544;10.226;2023-08-31T06:07:25;6.70;;;6.20;;
4724;SDS011;2376;53.544;10.226;2023-08-31T06:09:54;11.33;;;6.23;;
4724;SDS011;2376;53.544;10.226;2023-08-31T06:12:20;5.87;;;5.40;;
4724;SDS011;2376;53.544;10.226;2023-08-31T06:14:49;6.97;;;6.30;;
4724;SDS011;2376;53.544;10.226;2023-08-31T06:17:15;5.47;;;5.07;;
4724;SDS011;2376;53.544;10.226;2023-08-31T06:19:42;7.40;;;5.70;;
4724;SDS011;2376;53.544;10.226;2023-08-31T06:22:09;6.20;;;5.30;;
4724;SDS011;2376;53.544;10.226;2023-08-31T06:24:36;5.47;;;5.00;;
4724;SDS011;2376;53.544;10.226;2023-08-31T06:27:03;6.50;;;5.07;;
4724;SDS011;2376;53.544;10.226;2023-08-31T06:29:30;6.87;;;4.67;;
4724;SDS011;2376;53.544;10.226;2023-08-31T06:31:58;14.63;;;5.17;;
4724;SDS011;2376;53.544;10.226;2023-08-31T06:34:24;4.97;;;4.53;;
4724;SDS011;2376;53.544;10.226;2023-08-31T06:36:51;6.03;;;4.30;;
4724;SDS011;2376;53.544;10.226;2023-08-31T06:39:17;6.60;;;4.13;;
4724;SDS011;2376;53.544;10.226;2023-08-31T06:41:44;7.50;;;4.10;;
4724;SDS011;2376;53.544;10.226;2023-08-31T06:44:11;5.57;;;4.20;;
4724;SDS011;2376;53.544;10.226;2023-08-31T06:46:37;4.23;;;3.83;;
4724;SDS011;2376;53.544;10.226;2023-08-31T06:49:05;4.70;;;4.20;;
4724;SDS011;2376;53.544;10.226;2023-08-31T06:51:32;5.70;;;3.50;;
4724;SDS011;2376;53.544;10.226;2023-08-31T06:53:59;4.30;;;4.00;;
4724;SDS011;2376;53.544;10.226;2023-08-31T06:56:31;5.40;;;4.13;;
4724;SDS011;2376;53.544;10.226;2023-08-31T06:58:57;4.00;;;3.80;;
4724;SDS011;2376;53.544;10.226;2023-08-31T07:01:24;3.87;;;3.57;;
4724;SDS011;2376;53.544;10.226;2023-08-31T07:03:52;6.70;;;3.87;;
4724;SDS011;2376;53.544;10.226;2023-08-31T07:06:19;3.57;;;3.30;;
4724;SDS011;2376;53.544;10.226;2023-08-31T07:08:46;4.60;;;3.67;;
4724;SDS011;2376;53.544;10.226;2023-08-31T07:11:14;3.73;;;3.40;;
4724;SDS011;2376;53.544;10.226;2023-08-31T07:13:40;5.23;;;3.87;;
4724;SDS011;2376;53.544;10.226;2023-08-31T07:16:07;3.30;;;3.00;;
4724;SDS011;2376;53.544;10.226;2023-08-31T07:18:34;6.80;;;3.60;;
4724;SDS011;2376;53.544;10.226;2023-08-31T07:21:01;3.50;;;3.20;;
4724;SDS011;2376;53.544;10.226;2023-08-31T07:23:31;6.07;;;3.60;;
4724;SDS011;2376;53.544;10.226;2023-08-31T07:25:58;3.10;;;2.90;;
4724;SDS011;2376;53.544;10.226;2023-08-31T07:28:25;3.40;;;3.10;;
4724;SDS011;2376;53.544;10.226;2023-08-31T07:31:00;4.63;;;2.70;;
4724;SDS011;2376;53.544;10.226;2023-08-31T07:33:28;2.93;;;2.73;;
4724;SDS011;2376;53.544;10.226;2023-08-31T07:35:55;2.63;;;2.43;;
4724;SDS011;2376;53.544;10.226;2023-08-31T07:38:22;4.60;;;3.90;;
4724;SDS011;2376;53.544;10.226;2023-08-31T07:40:49;2.50;;;2.23;;
4724;SDS011;2376;53.544;10.226;2023-08-31T07:43:16;3.37;;;2.40;;
4724;SDS011;2376;53.544;10.226;2023-08-31T07:45:43;2.07;;;1.97;;
4724;SDS011;2376;53.544;10.226;2023-08-31T07:48:10;4.70;;;2.20;;
4724;SDS011;2376;53.544;10.226;2023-08-31T07:50:36;2.07;;;1.80;;
4724;SDS011;2376;53.544;10.226;2023-08-31T07:53:03;2.70;;;1.57;;
4724;SDS011;2376;53.544;10.226;2023-08-31T07:55:30;5.60;;;2.03;;
4724;SDS011;2376;53.544;10.226;2023-08-31T07:57:58;1.67;;;1.57;;
4724;SDS011;2376;53.544;10.226;2023-08-31T08:00:25;4.27;;;1.63;;
4724;SDS011;2376;53.544;10.226;2023-08-31T08:02:51;3.00;;;1.60;;
4724;SDS011;2376;53.544;10.226;2023-08-31T08:05:18;2.70;;;1.40;;
4724;SDS011;2376;53.544;10.226;2023-08-31T08:07:45;4.17;;;2.57;;
4724;SDS011;2376;53.544;10.226;2023-08-31T08:10:12;2.73;;;1.50;;
4724;SDS011;2376;53.544;10.226;2023-08-31T08:12:40;1.20;;;1.20;;
4724;SDS011;2376;53.544;10.226;2023-08-31T08:15:09;6.20;;;1.97;;
4724;SDS011;2376;53.544;10.226;2023-08-31T08:17:36;3.53;;;1.93;;
4724;SDS011;2376;53.544;10.226;2023-08-31T08:20:03;4.07;;;1.90;;
4724;SDS011;2376;53.544;10.226;2023-08-31T08:22:34;2.77;;;1.93;;
4724;SDS011;2376;53.544;10.226;2023-08-31T08:25:02;2.03;;;1.93;;
4724;SDS011;2376;53.544;10.226;2023-08-31T08:27:28;2.23;;;2.03;;
4724;SDS011;2376;53.544;10.226;2023-08-31T08:29:56;2.50;;;1.87;;
4724;SDS011;2376;53.544;10.226;2023-08-31T08:32:24;4.20;;;1.87;;
4724;SDS011;2376;53.544;10.226;2023-08-31T08:34:51;1.90;;;1.80;;
4724;SDS011;2376;53.544;10.226;2023-08-31T08:37:18;2.50;;;1.80;;
4724;SDS011;2376;53.544;10.226;2023-08-31T08:39:47;2.40;;;1.60;;
4724;SDS011;2376;53.544;10.226;2023-08-31T08:42:14;1.90;;;1.80;;
4724;SDS011;2376;53.544;10.226;2023-08-31T08:44:43;4.13;;;1.70;;
4724;SDS011;2376;53.544;10.226;2023-08-31T08:47:11;1.80;;;1.70;;
4724;SDS011;2376;53.544;10.226;2023-08-31T08:49:39;1.90;;;1.70;;
4724;SDS011;2376;53.544;10.226;2023-08-31T08:52:06;3.27;;;1.90;;
4724;SDS011;2376;53.544;10.226;2023-08-31T08:54:33;1.60;;;1.50;;
4724;SDS011;2376;53.544;10.226;2023-08-31T08:57:01;2.00;;;1.83;;
4724;SDS011;2376;53.544;10.226;2023-08-31T08:59:28;1.70;;;1.60;;
4724;SDS011;2376;53.544;10.226;2023-08-31T09:01:56;2.43;;;1.50;;
4724;SDS011;2376;53.544;10.226;2023-08-31T09:04:23;1.70;;;1.60;;
4724;SDS011;2376;53.544;10.226;2023-08-31T09:06:51;3.53;;;1.43;;
4724;SDS011;2376;53.544;10.226;2023-08-31T09:09:18;2.80;;;2.03;;
4724;SDS011;2376;53.544;10.226;2023-08-31T09:11:46;4.70;;;2.30;;
4724;SDS011;2376;53.544;10.226;2023-08-31T09:14:13;3.10;;;2.10;;
4724;SDS011;2376;53.544;10.226;2023-08-31T09:16:40;4.10;;;1.70;;
4724;SDS011;2376;53.544;10.226;2023-08-31T09:19:17;3.37;;;1.93;;
4724;SDS011;2376;53.544;10.226;2023-08-31T09:21:44;2.33;;;2.13;;
4724;SDS011;2376;53.544;10.226;2023-08-31T09:24:12;2.70;;;2.00;;
4724;SDS011;2376;53.544;10.226;2023-08-31T09:26:39;2.23;;;2.10;;
4724;SDS011;2376;53.544;10.226;2023-08-31T09:29:06;2.70;;;2.50;;
4724;SDS011;2376;53.544;10.226;2023-08-31T09:31:33;2.60;;;2.40;;
4724;SDS011;2376;53.544;10.226;2023-08-31T09:34:00;3.83;;;2.77;;
4724;SDS011;2376;53.544;10.226;2023-08-31T09:36:28;2.53;;;2.33;;
4724;SDS011;2376;53.544;10.226;2023-08-31T09:38:56;2.50;;;2.33;;
4724;SDS011;2376;53.544;10.226;2023-08-31T09:41:25;4.57;;;2.83;;
4724;SDS011;2376;53.544;10.226;2023-08-31T09:43:52;2.63;;;2.43;;
4724;SDS011;2376;53.544;10.226;2023-08-31T09:46:19;2.50;;;2.30;;
4724;SDS011;2376;53.544;10.226;2023-08-31T09:48:47;2.53;;;2.33;;
4724;SDS011;2376;53.544;10.226;2023-08-31T09:51:14;6.63;;;3.10;;
4724;SDS011;2376;53.544;10.226;2023-08-31T09:53:44;2.27;;;2.17;;
4724;SDS011;2376;53.544;10.226;2023-08-31T09:56:17;2.27;;;2.17;;
4724;SDS011;2376;53.544;10.226;2023-08-31T09:58:48;5.53;;;2.03;;
4724;SDS011;2376;53.544;10.226;2023-08-31T10:01:16;3.40;;;2.07;;
4724;SDS011;2376;53.544;10.226;2023-08-31T10:03:43;2.10;;;1.63;;
4724;SDS011;2376;53.544;10.226;2023-08-31T10:06:10;3.37;;;2.03;;
4724;SDS011;2376;53.544;10.226;2023-08-31T10:08:37;2.00;;;1.80;;
4724;SDS011;2376;53.544;10.226;2023-08-31T10:11:05;2.70;;;2.07;;
4724;SDS011;2376;53.544;10.226;2023-08-31T10:13:32;4.13;;;2.10;;
4724;SDS011;2376;53.544;10.226;2023-08-31T10:16:05;2.63;;;1.70;;
4724;SDS011;2376;53.544;10.226;2023-08-31T10:18:31;4.93;;;2.40;;
4724;SDS011;2376;53.544;10.226;2023-08-31T10:21:00;2.03;;;1.80;;
4724;SDS011;2376;53.544;10.226;2023-08-31T10:23:28;1.70;;;1.57;;
4724;SDS011;2376;53.544;10.226;2023-08-31T10:25:59;1.77;;;1.67;;
4724;SDS011;2376;53.544;10.226;2023-08-31T10:28:28;3.23;;;1.70;;
4724;SDS011;2376;53.544;10.226;2023-08-31T10:31:01;1.77;;;1.57;;
4724;SDS011;2376;53.544;10.226;2023-08-31T10:33:32;5.50;;;1.57;;
4724;SDS011;2376;53.544;10.226;2023-08-31T10:35:59;2.00;;;1.80;;
4724;SDS011;2376;53.544;10.226;2023-08-31T10:38:27;1.40;;;1.30;;
4724;SDS011;2376;53.544;10.226;2023-08-31T10:41:02;3.67;;;1.80;;
4724;SDS011;2376;53.544;10.226;2023-08-31T10:43:45;2.00;;;1.90;;
4724;SDS011;2376;53.544;10.226;2023-08-31T10:46:27;2.30;;;2.20;;
4724;SDS011;2376;53.544;10.226;2023-08-31T10:48:56;2.40;;;2.30;;
4724;SDS011;2376;53.544;10.226;2023-08-31T10:51:25;2.30;;;2.13;;
4724;SDS011;2376;53.544;10.226;2023-08-31T10:54:03;4.87;;;2.13;;
4724;SDS011;2376;53.544;10.226;2023-08-31T10:56:31;4.80;;;2.50;;
4724;SDS011;2376;53.544;10.226;2023-08-31T10:58:58;2.90;;;2.40;;
4724;SDS011;2376;53.544;10.226;2023-08-31T11:04:19;2.30;;;2.00;;
4724;SDS011;2376;53.544;10.226;2023-08-31T11:06:46;2.73;;;2.17;;
4724;SDS011;2376;53.544;10.226;2023-08-31T11:09:17;2.47;;;2.27;;
4724;SDS011;2376;53.544;10.226;2023-08-31T11:11:45;2.00;;;1.90;;
4724;SDS011;2376;53.544;10.226;2023-08-31T11:14:11;4.23;;;2.13;;
4724;SDS011;2376;53.544;10.226;2023-08-31T11:16:38;2.63;;;2.00;;
4724;SDS011;2376;53.544;10.226;2023-08-31T11:19:05;2.67;;;2.23;;
4724;SDS011;2376;53.544;10.226;2023-08-31T11:21:33;2.60;;;2.50;;
4724;SDS011;2376;53.544;10.226;2023-08-31T11:24:02;2.40;;;2.30;;
4724;SDS011;2376;53.544;10.226;2023-08-31T11:26:29;1.90;;;1.80;;
4724;SDS011;2376;53.544;10.226;2023-08-31T11:28:57;3.00;;;2.27;;
4724;SDS011;2376;53.544;10.226;2023-08-31T11:31:24;2.10;;;2.00;;
4724;SDS011;2376;53.544;10.226;2023-08-31T11:33:51;2.10;;;2.00;;
4724;SDS011;2376;53.544;10.226;2023-08-31T11:36:18;2.23;;;2.03;;
4724;SDS011;2376;53.544;10.226;2023-08-31T11:38:46;2.37;;;2.27;;
4724;SDS011;2376;53.544;10.226;2023-08-31T11:41:14;2.40;;;2.00;;
4724;SDS011;2376;53.544;10.226;2023-08-31T11:43:41;1.90;;;1.80;;
4724;SDS011;2376;53.544;10.226;2023-08-31T11:46:07;3.47;;;2.10;;
4724;SDS011;2376;53.544;10.226;2023-08-31T11:48:35;1.87;;;1.77;;
4724;SDS011;2376;53.544;10.226;2023-08-31T11:51:02;2.33;;;2.20;;
4724;SDS011;2376;53.544;10.226;2023-08-31T11:53:29;4.70;;;2.03;;
4724;SDS011;2376;53.544;10.226;2023-08-31T11:55:57;1.70;;;1.60;;
4724;SDS011;2376;53.544;10.226;2023-08-31T11:58:28;2.40;;;1.77;;
4724;SDS011;2376;53.544;10.226;2023-08-31T12:00:55;2.60;;;1.77;;
4724;SDS011;2376;53.544;10.226;2023-08-31T12:03:23;3.80;;;1.87;;
4724;SDS011;2376;53.544;10.226;2023-08-31T12:05:51;1.50;;;1.40;;
4724;SDS011;2376;53.544;10.226;2023-08-31T12:08:23;2.50;;;1.90;;
4724;SDS011;2376;53.544;10.226;2023-08-31T12:10:51;1.70;;;1.43;;
4724;SDS011;2376;53.544;10.226;2023-08-31T12:13:19;1.60;;;1.30;;
4724;SDS011;2376;53.544;10.226;2023-08-31T12:15:47;2.30;;;1.23;;
4724;SDS011;2376;53.544;10.226;2023-08-31T12:18:18;1.77;;;1.67;;
4724;SDS011;2376;53.544;10.226;2023-08-31T12:20:45;1.80;;;1.47;;
4724;SDS011;2376;53.544;10.226;2023-08-31T12:23:12;3.63;;;1.30;;
4724;SDS011;2376;53.544;10.226;2023-08-31T12:25:44;2.00;;;1.70;;
4724;SDS011;2376;53.544;10.226;2023-08-31T12:28:12;1.50;;;1.40;;
4724;SDS011;2376;53.544;10.226;2023-08-31T12:30:41;1.43;;;1.23;;
4724;SDS011;2376;53.544;10.226;2023-08-31T12:33:09;1.43;;;1.27;;
4724;SDS011;2376;53.544;10.226;2023-08-31T12:35:36;1.40;;;1.30;;
4724;SDS011;2376;53.544;10.226;2023-08-31T12:38:03;2.80;;;1.10;;
4724;SDS011;2376;53.544;10.226;2023-08-31T12:40:30;2.87;;;1.30;;
4724;SDS011;2376;53.544;10.226;2023-08-31T12:42:56;3.17;;;1.30;;
4724;SDS011;2376;53.544;10.226;2023-08-31T12:45:23;1.20;;;1.10;;
4724;SDS011;2376;53.544;10.226;2023-08-31T12:47:51;1.20;;;1.00;;
4724;SDS011;2376;53.544;10.226;2023-08-31T12:50:17;1.20;;;1.10;;
4724;SDS011;2376;53.544;10.226;2023-08-31T12:52:44;1.73;;;1.13;;
4724;SDS011;2376;53.544;10.226;2023-08-31T12:55:11;1.10;;;1.00;;
4724;SDS011;2376;53.544;10.226;2023-08-31T12:57:39;8.53;;;1.33;;
4724;SDS011;2376;53.544;10.226;2023-08-31T13:00:06;1.70;;;1.00;;
4724;SDS011;2376;53.544;10.226;2023-08-31T13:02:36;1.10;;;1.00;;
4724;SDS011;2376;53.544;10.226;2023-08-31T13:05:05;1.93;;;0.90;;
4724;SDS011;2376;53.544;10.226;2023-08-31T13:07:33;1.10;;;0.90;;
4724;SDS011;2376;53.544;10.226;2023-08-31T13:09:59;1.67;;;0.90;;
4724;SDS011;2376;53.544;10.226;2023-08-31T13:12:28;2.43;;;0.97;;
4724;SDS011;2376;53.544;10.226;2023-08-31T13:14:55;1.20;;;1.10;;
4724;SDS011;2376;53.544;10.226;2023-08-31T13:17:22;1.23;;;1.10;;
4724;SDS011;2376;53.544;10.226;2023-08-31T13:19:51;3.10;;;1.20;;
4724;SDS011;2376;53.544;10.226;2023-08-31T13:22:19;1.10;;;1.00;;
4724;SDS011;2376;53.544;10.226;2023-08-31T13:24:46;2.30;;;1.10;;
4724;SDS011;2376;53.544;10.226;2023-08-31T13:27:13;1.20;;;1.03;;
4724;SDS011;2376;53.544;10.226;2023-08-31T13:29:40;3.53;;;1.00;;
4724;SDS011;2376;53.544;10.226;2023-08-31T13:32:07;0.83;;;0.83;;
4724;SDS011;2376;53.544;10.226;2023-08-31T13:34:34;3.43;;;1.07;;
4724;SDS011;2376;53.544;10.226;2023-08-31T13:37:01;1.83;;;1.10;;
4724;SDS011;2376;53.544;10.226;2023-08-31T13:39:30;1.90;;;0.80;;
4724;SDS011;2376;53.544;10.226;2023-08-31T13:41:57;1.37;;;1.10;;
4724;SDS011;2376;53.544;10.226;2023-08-31T13:44:24;6.83;;;1.40;;
4724;SDS011;2376;53.544;10.226;2023-08-31T13:46:50;2.00;;;1.20;;
4724;SDS011;2376;53.544;10.226;2023-08-31T13:49:17;2.17;;;1.00;;
4724;SDS011;2376;53.544;10.226;2023-08-31T13:51:44;1.20;;;1.10;;
4724;SDS011;2376;53.544;10.226;2023-08-31T13:54:10;5.80;;;1.07;;
4724;SDS011;2376;53.544;10.226;2023-08-31T13:56:38;1.17;;;1.00;;
4724;SDS011;2376;53.544;10.226;2023-08-31T13:59:05;1.10;;;1.00;;
4724;SDS011;2376;53.544;10.226;2023-08-31T14:01:32;1.53;;;0.80;;
4724;SDS011;2376;53.544;10.226;2023-08-31T14:03:58;1.30;;;1.20;;
4724;SDS011;2376;53.544;10.226;2023-08-31T14:06:25;1.00;;;0.90;;
4724;SDS011;2376;53.544;10.226;2023-08-31T14:08:52;0.83;;;0.83;;
4724;SDS011;2376;53.544;10.226;2023-08-31T14:11:18;1.80;;;0.80;;
4724;SDS011;2376;53.544;10.226;2023-08-31T14:13:46;1.10;;;1.10;;
4724;SDS011;2376;53.544;10.226;2023-08-31T14:16:14;1.17;;;0.93;;
4724;SDS011;2376;53.544;10.226;2023-08-31T14:18:40;1.10;;;1.00;;
4724;SDS011;2376;53.544;10.226;2023-08-31T14:21:09;0.90;;;0.90;;
4724;SDS011;2376;53.544;10.226;2023-08-31T14:23:40;2.20;;;1.53;;
4724;SDS011;2376;53.544;10.226;2023-08-31T14:26:07;1.03;;;0.97;;
4724;SDS011;2376;53.544;10.226;2023-08-31T14:28:36;1.07;;;0.97;;
4724;SDS011;2376;53.544;10.226;2023-08-31T14:31:05;1.27;;;0.87;;
4724;SDS011;2376;53.544;10.226;2023-08-31T14:33:32;1.10;;;0.90;;
4724;SDS011;2376;53.544;10.226;2023-08-31T14:35:59;2.10;;;1.20;;
4724;SDS011;2376;53.544;10.226;2023-08-31T14:38:26;1.33;;;1.17;;
4724;SDS011;2376;53.544;10.226;2023-08-31T14:40:53;1.00;;;0.90;;
4724;SDS011;2376;53.544;10.226;2023-08-31T14:43:20;1.03;;;0.93;;
4724;SDS011;2376;53.544;10.226;2023-08-31T14:45:47;2.30;;;0.90;;
4724;SDS011;2376;53.544;10.226;2023-08-31T14:48:15;1.13;;;1.00;;
4724;SDS011;2376;53.544;10.226;2023-08-31T14:50:42;3.10;;;1.03;;
4724;SDS011;2376;53.544;10.226;2023-08-31T14:53:09;2.90;;;1.00;;
4724;SDS011;2376;53.544;10.226;2023-08-31T14:55:36;1.17;;;1.07;;
4724;SDS011;2376;53.544;10.226;2023-08-31T14:58:03;1.37;;;1.27;;
4724;SDS011;2376;53.544;10.226;2023-08-31T15:00:31;1.10;;;1.00;;
4724;SDS011;2376;53.544;10.226;2023-08-31T15:02:58;1.13;;;0.80;;
4724;SDS011;2376;53.544;10.226;2023-08-31T15:05:26;1.00;;;0.90;;
4724;SDS011;2376;53.544;10.226;2023-08-31T15:07:55;2.30;;;1.00;;